Flight Track Log - Related Links

Times and Time Zones

All times are in EDT time to prevent confusion due to time zone crossing. See the C-GYFB flight status page for this flight to view local times or setup timezone preferences in your user account.

Time Position Orientation Groundspeed Altitude Reporting Facility
EDT Latitude Longitude Course Direction KTS MPH feet Rate Location/Type
Wed 11:30:26 PM 63.8000 -68.5667 270° West 170 196 800  Level Montreal Center
Wed 11:31:26 PM 63.8000 -68.6833 270° West 260 299 4,100 3,100 Climbing Montreal Center
Wed 11:32:26 PM 63.7333 -68.7000 186° South 250 288 7,000 2,950 Climbing Montreal Center
Wed 11:33:26 PM 63.6833 -68.6333 149° Southeast 280 322 10,000 2,700 Climbing Montreal Center
Wed 11:34:26 PM 63.6000 -68.6167 175° South 290 334 12,400 2,350 Climbing Montreal Center
Wed 11:35:26 PM 63.5167 -68.6667 195° South 330 380 14,700 2,200 Climbing Montreal Center
Wed 11:36:26 PM 63.4167 -68.7333 197° South 340 391 16,800 2,450 Climbing Montreal Center
Wed 11:37:26 PM 63.3333 -68.8000 200° South 350 403 19,600 2,200 Climbing Montreal Center
Wed 11:38:26 PM 63.2333 -68.8500 193° South 360 414 21,200 1,600 Climbing Montreal Center
Wed 11:39:26 PM 63.1333 -68.9167 197° South 370 426 22,800 1,500 Climbing Montreal Center
Wed 11:40:26 PM 63.0333 -68.9833 197° South 380 437 24,200 1,400 Climbing Montreal Center
Wed 11:41:26 PM 62.9167 -69.0333 191° South 390 449 25,600 1,400 Climbing Montreal Center
Wed 11:42:26 PM 62.8167 -69.1000 197° South 400 460 27,000 1,300 Climbing Montreal Center
Wed 11:43:26 PM 62.7000 -69.1667 195° South 400 460 28,200 1,200 Climbing Montreal Center
Wed 11:44:26 PM 62.6000 -69.2500 201° Southwest 410 472 29,400 1,250 Climbing Montreal Center
Wed 11:45:26 PM 62.4833 -69.3167 195° South 410 472 30,700 1,100 Climbing Montreal Center
Wed 11:46:26 PM 62.3833 -69.3833 197° South 410 472 31,600 750 Climbing Montreal Center
Wed 11:47:26 PM 62.2667 -69.4333 191° South 410 472 32,200 650 Climbing Montreal Center
Wed 11:48:26 PM 62.1500 -69.5000 195° South 420 483 32,900 600 Climbing Montreal Center
Wed 11:49:26 PM 62.0333 -69.5500 191° South 420 483 33,400 500 Climbing Montreal Center
Wed 11:50:26 PM 61.9333 -69.6167 197° South 410 472 33,900 300 Climbing Montreal Center
Wed 11:51:26 PM 61.8167 -69.7000 199° South 410 472 34,000 50 Climbing Montreal Center
Wed 11:52:26 PM 61.7000 -69.7667 195° South 420 483 34,000  Level Montreal Center
Wed 11:53:26 PM 61.6000 -69.8167 193° South 420 483 34,000  Level Montreal Center
Wed 11:54:26 PM 61.4833 -69.8833 195° South 420 483 34,000  Level Montreal Center
Wed 11:55:26 PM 61.3667 -69.9333 192° South 420 483 34,000  Level Montreal Center
Wed 11:56:26 PM 61.2500 -70.0333 202° Southwest 430 495 34,000  Level Montreal Center
Wed 11:57:26 PM 61.1333 -70.0833 192° South 430 495 34,000  Level Montreal Center
Wed 11:58:26 PM 61.0167 -70.1333 192° South 430 495 34,000  Level Montreal Center
Wed 11:59:26 PM 60.9000 -70.2000 196° South 420 483 34,000  Level Montreal Center
Thu 12:00:26 AM 60.7833 -70.2500 192° South 430 495 34,000  Level Montreal Center
Thu 12:01:26 AM 60.6667 -70.3000 192° South 430 495 34,000  Level Montreal Center
Thu 12:02:26 AM 60.5500 -70.3500 192° South 430 495 34,000  Level Montreal Center
Thu 12:03:26 AM 60.4333 -70.4500 203° Southwest 420 483 34,000  Level Montreal Center
Thu 12:04:26 AM 60.3333 -70.5000 194° South 430 495 34,000  Level Montreal Center
Thu 12:05:26 AM 60.2167 -70.5500 192° South 420 483 34,000  Level Montreal Center
Thu 12:06:26 AM 60.1000 -70.6000 192° South 430 495 34,000  Level Montreal Center
Thu 12:07:26 AM 59.9833 -70.6833 200° South 430 495 34,000  Level Montreal Center
Thu 12:08:26 AM 59.8667 -70.7333 192° South 420 483 34,000  Level Montreal Center
Thu 12:09:26 AM 59.7500 -70.7833 192° South 430 495 34,000  Level Montreal Center
Thu 12:10:26 AM 59.6333 -70.8333 192° South 420 483 34,000  Level Montreal Center
Thu 12:11:26 AM 59.5167 -70.8833 192° South 420 483 34,000  Level Montreal Center
Thu 12:12:26 AM 59.4000 -70.9333 192° South 420 483 34,000  Level Montreal Center
Thu 12:13:26 AM 59.3000 -70.9833 194° South 410 472 34,000  Level Montreal Center
Thu 12:14:26 AM 59.1833 -71.0333 192° South 410 472 34,000  Level Montreal Center
Thu 12:15:26 AM 59.0667 -71.1167 200° South 410 472 34,000  Level Montreal Center
Thu 12:16:26 AM 58.9500 -71.1667 192° South 420 483 34,000  Level Montreal Center
Thu 12:17:26 AM 58.8500 -71.2167 195° South 410 472 34,000  Level Montreal Center
Thu 12:18:26 AM 58.7333 -71.2667 193° South 410 472 34,000  Level Montreal Center
Thu 12:19:26 AM 58.6167 -71.3167 193° South 400 460 34,000  Level Montreal Center
Thu 12:20:26 AM 58.5167 -71.3500 190° South 390 449 34,000  Level Montreal Center
Thu 12:21:26 AM 58.4000 -71.4000 193° South 400 460 34,000  Level Montreal Center
Thu 12:22:26 AM 58.3167 -71.4833 208° Southwest 400 460 34,000  Level Montreal Center
Thu 12:23:26 AM 58.2000 -71.5167 189° South 390 449 34,000  Level Montreal Center
Thu 12:24:26 AM 58.1000 -71.5667 195° South 390 449 34,000  Level Montreal Center
Thu 12:25:26 AM 57.9833 -71.6167 193° South 390 449 34,000  Level Montreal Center
Thu 12:26:26 AM 57.8833 -71.6500 190° South 390 449 34,000  Level Montreal Center
Thu 12:27:26 AM 57.7833 -71.7000 195° South 380 437 34,000  Level Montreal Center
Thu 12:28:26 AM 57.6667 -71.7500 193° South 380 437 34,000  Level Montreal Center
Thu 12:29:26 AM 57.5667 -71.7833 190° South 380 437 34,000  Level Montreal Center
Thu 12:30:26 AM 57.4667 -71.8333 195° South 370 426 34,000  Level Montreal Center
Thu 12:31:26 AM 57.3667 -71.8667 190° South 370 426 34,000  Level Montreal Center
Thu 12:32:26 AM 57.2667 -71.9167 195° South 360 414 34,000  Level Montreal Center
Thu 12:33:26 AM 57.1667 -71.9500 190° South 360 414 34,000  Level Montreal Center
Thu 12:34:26 AM 57.0667 -72.0000 195° South 350 403 34,000  Level Montreal Center
Thu 12:35:26 AM 56.9833 -72.0333 192° South 350 403 34,000  Level Montreal Center
Thu 12:36:26 AM 56.8833 -72.0833 195° South 350 403 34,000  Level Montreal Center
Thu 12:37:26 AM 56.7833 -72.1167 190° South 350 403 34,000  Level Montreal Center
Thu 12:38:26 AM 56.7000 -72.1667 198° South 340 391 34,000  Level Montreal Center
Thu 12:39:26 AM 56.6000 -72.2000 190° South 340 391 34,000  Level Montreal Center
Thu 12:40:26 AM 56.5167 -72.2333 192° South 340 391 34,000  Level Montreal Center
Thu 12:41:26 AM 56.4167 -72.2833 195° South 340 391 34,000  Level Montreal Center
Thu 12:42:26 AM 56.3167 -72.3167 190° South 340 391 34,000  Level Montreal Center
Thu 12:43:26 AM 56.2167 -72.3667 196° South 340 391 34,000  Level Montreal Center
Thu 12:44:26 AM 56.1333 -72.4000 193° South 340 391 34,000  Level Montreal Center
Thu 12:45:26 AM 56.0333 -72.4333 191° South 340 391 34,000  Level Montreal Center
Thu 12:46:26 AM 55.9500 -72.4667 193° South 330 380 34,000  Level Montreal Center
Thu 12:47:26 AM 55.8667 -72.4833 186° South 330 380 34,000  Level Montreal Center
Thu 12:48:26 AM 55.7667 -72.5167 191° South 330 380 34,000  Level Montreal Center
Thu 12:49:26 AM 55.6833 -72.5500 193° South 330 380 34,000  Level Montreal Center
Thu 12:50:26 AM 55.5833 -72.6000 196° South 330 380 34,000  Level Montreal Center
Thu 12:51:26 AM 55.5000 -72.6333 193° South 330 380 34,000  Level Montreal Center
Thu 12:52:26 AM 55.4000 -72.6667 191° South 330 380 34,000  Level Montreal Center
Thu 12:53:26 AM 55.3167 -72.7000 193° South 330 380 34,000  Level Montreal Center
Thu 12:54:26 AM 55.2167 -72.7500 196° South 330 380 34,000  Level Montreal Center
Thu 12:55:26 AM 55.1333 -72.7833 193° South 330 380 34,000  Level Montreal Center
Thu 12:56:26 AM 55.0333 -72.8167 191° South 330 380 34,000  Level Montreal Center
Thu 12:57:26 AM 54.9500 -72.8500 193° South 330 380 34,000  Level Montreal Center
Thu 12:58:26 AM 54.8667 -72.8833 193° South 330 380 34,000  Level Montreal Center
Thu 12:59:26 AM 54.7667 -72.9333 196° South 330 380 34,000  Level Montreal Center
Thu 01:00:26 AM 54.6833 -72.9333 180° South 340 391 34,000  Level Montreal Center
Thu 01:01:26 AM 54.5833 -72.9667 191° South 330 380 34,000  Level Montreal Center
Thu 01:02:26 AM 54.5000 -73.0000 193° South 330 380 34,000  Level Montreal Center
Thu 01:03:26 AM 54.4000 -73.0333 191° South 340 391 34,000  Level Montreal Center
Thu 01:04:26 AM 54.3000 -73.0833 196° South 340 391 34,000  Level Montreal Center
Thu 01:05:26 AM 54.2167 -73.1167 193° South 330 380 34,000  Level Montreal Center
Thu 01:06:26 AM 54.1167 -73.1500 191° South 330 380 34,000  Level Montreal Center
Thu 01:07:26 AM 54.0333 -73.1833 193° South 340 391 34,000  Level Montreal Center
Thu 01:08:26 AM 53.9500 -73.2167 193° South 330 380 34,000  Level Montreal Center
Thu 01:09:26 AM 53.8500 -73.2500 191° South 340 391 34,000  Level Montreal Center
Thu 01:10:26 AM 53.7667 -73.2833 193° South 340 391 34,000  Level Montreal Center
Thu 01:11:26 AM 53.6667 -73.3167 191° South 340 391 34,000  Level Montreal Center
Thu 01:12:26 AM 53.5833 -73.3500 193° South 340 391 34,000  Level Montreal Center
Thu 01:13:26 AM 53.4833 -73.3833 191° South 340 391 34,000  Level Montreal Center
Thu 01:14:26 AM 53.3833 -73.4167 191° South 340 391 34,000  Level Montreal Center
Thu 01:15:26 AM 53.2833 -73.4500 191° South 350 403 34,000  Level Montreal Center
Thu 01:16:26 AM 53.2000 -73.4833 193° South 340 391 34,000  Level Montreal Center
Thu 01:17:26 AM 53.1000 -73.5167 191° South 340 391 34,000  Level Montreal Center
Thu 01:18:26 AM 53.0167 -73.5500 194° South 340 391 34,000  Level Montreal Center
Thu 01:19:26 AM 52.9167 -73.5667 186° South 350 403 34,000  Level Montreal Center
Thu 01:20:26 AM 52.8167 -73.6000 191° South 340 391 34,000  Level Montreal Center
Thu 01:21:26 AM 52.7333 -73.6333 194° South 340 391 34,000  Level Montreal Center
Thu 01:22:26 AM 52.6333 -73.6667 191° South 340 391 34,000  Level Montreal Center
Thu 01:23:26 AM 52.5500 -73.7000 194° South 350 403 34,000  Level Montreal Center
Thu 01:24:26 AM 52.4500 -73.7333 191° South 350 403 34,000  Level Montreal Center
Thu 01:25:26 AM 52.3500 -73.7667 192° South 350 403 34,000  Level Montreal Center
Thu 01:26:26 AM 52.2500 -73.8000 192° South 350 403 34,000  Level Montreal Center
Thu 01:27:26 AM 52.1667 -73.8167 187° South 350 403 34,000  Level Montreal Center
Thu 01:28:26 AM 52.0667 -73.8500 192° South 350 403 34,000  Level Montreal Center
Thu 01:29:26 AM 51.9500 -73.8833 190° South 350 403 34,000  Level Montreal Center
Thu 01:30:26 AM 51.8500 -73.9167 192° South 360 414 34,000  Level Montreal Center
Thu 01:31:26 AM 51.7500 -73.9500 192° South 360 414 34,000  Level Montreal Center
Thu 01:32:26 AM 51.6500 -73.9833 192° South 360 414 34,000  Level Montreal Center
Thu 01:33:26 AM 51.5500 -74.0167 192° South 360 414 34,000  Level Montreal Center
Thu 01:34:26 AM 51.4500 -74.0500 192° South 360 414 34,000  Level Montreal Center
Thu 01:35:26 AM 51.3500 -74.0833 192° South 360 414 34,000  Level Montreal Center
Thu 01:36:26 AM 51.2667 -74.1167 194° South 360 414 34,000  Level Montreal Center
Thu 01:37:26 AM 51.1500 -74.1333 185° South 360 414 34,000  Level Montreal Center
Thu 01:38:26 AM 51.0667 -74.1667 194° South 370 426 34,000  Level Montreal Center
Thu 01:39:26 AM 50.9500 -74.2000 190° South 360 414 34,000  Level Montreal Center
Thu 01:40:26 AM 50.8667 -74.2333 194° South 360 414 34,000  Level Montreal Center
Thu 01:41:26 AM 50.7667 -74.2667 192° South 360 414 34,000  Level Montreal Center
Thu 01:42:26 AM 50.6667 -74.3000 192° South 360 414 34,000  Level Montreal Center
Thu 01:43:26 AM 50.5667 -74.3167 186° South 360 414 34,000  Level Montreal Center
Thu 01:44:26 AM 50.4667 -74.3500 192° South 360 414 34,000  Level Montreal Center
Thu 01:45:26 AM 50.3667 -74.3833 192° South 360 414 34,000  Level Montreal Center
Thu 01:46:26 AM 50.2667 -74.4167 192° South 370 426 34,000  Level Montreal Center
Thu 01:47:26 AM 50.1667 -74.4500 192° South 370 426 34,000  Level Montreal Center
Thu 01:48:26 AM 50.0667 -74.5000 198° South 370 426 34,000  Level Montreal Center
Thu 01:49:26 AM 49.9667 -74.5333 192° South 380 437 34,000  Level Montreal Center
Thu 01:50:26 AM 49.8500 -74.5500 185° South 380 437 34,000  Level Montreal Center
Thu 01:51:26 AM 49.7667 -74.5833 194° South 380 437 34,000 500 Level Montreal Center
Thu 01:52:26 AM 49.6500 -74.6167 190° South 370 426 35,000 800 Climbing Montreal Center
Thu 01:53:26 AM 49.5667 -74.6500 195° South 350 403 35,600 500 Climbing Montreal Center
Thu 01:54:26 AM 49.4667 -74.6667 186° South 350 403 36,000 200 Climbing Montreal Center
Thu 01:55:26 AM 49.3667 -74.6833 186° South 360 414 36,000  Level Montreal Center
Thu 01:56:26 AM 49.2500 -74.7000 185° South 370 426 36,000  Level Montreal Center
Thu 01:57:26 AM 49.1500 -74.7333 192° South 390 449 36,000  Level Montreal Center
Thu 01:58:26 AM 49.0500 -74.7667 192° South 390 449 36,000  Level Montreal Center
Thu 01:59:26 AM 48.9333 -74.7833 185° South 400 460 36,000  Level Montreal Center
Thu 02:00:26 AM 48.8333 -74.8167 192° South 400 460 36,000  Level Montreal Center
Thu 02:01:26 AM 48.7000 -74.8500 189° South 410 472 36,000  Level Montreal Center
Thu 02:02:26 AM 48.5833 -74.8667 185° South 410 472 36,000  Level Montreal Center
Thu 02:03:26 AM 48.4667 -74.9000 191° South 410 472 36,000 -50 Level Montreal Center
Thu 02:04:26 AM 48.3500 -74.9333 191° South 410 472 35,900  Descending Montreal Center
Thu 02:05:26 AM 48.2333 -74.9500 185° South 420 483 36,000 50 Climbing Montreal Center
Thu 02:06:26 AM 48.1167 -74.9833 191° South 420 483 36,000  Level Montreal Center
Thu 02:07:26 AM 48.0000 -75.0167 191° South 420 483 36,000  Level Montreal Center
Thu 02:08:26 AM 47.9000 -75.0333 186° South 420 483 36,000  Level Montreal Center
Thu 02:09:26 AM 47.7833 -75.0667 191° South 420 483 36,000  Level Montreal Center
Thu 02:10:26 AM 47.6667 -75.1000 191° South 430 495 36,000  Level Montreal Center
Thu 02:11:26 AM 47.5333 -75.1167 185° South 430 495 36,000  Level Montreal Center
Thu 02:12:26 AM 47.4167 -75.1500 191° South 440 506 36,000  Level Montreal Center
Thu 02:13:26 AM 47.3000 -75.1667 186° South 440 506 36,000  Level Montreal Center
Thu 02:14:26 AM 47.1667 -75.2000 190° South 440 506 36,000  Level Montreal Center
Thu 02:15:26 AM 47.0500 -75.2000 180° South 440 506 36,000  Level Montreal Center
Thu 02:16:26 AM 46.9333 -75.2333 191° South 450 518 36,000  Level Montreal Center
Thu 02:17:26 AM 46.8167 -75.2500 186° South 450 518 36,000 -550 Level Montreal Center
Thu 02:18:26 AM 46.6833 -75.2833 190° South 450 518 34,900 -2,250 Descending Montreal Center
Thu 02:19:26 AM 46.5500 -75.3167 190° South 460 529 31,500 -3,600 Descending Montreal Center
Thu 02:20:26 AM 46.4167 -75.3333 185° South 460 529 27,700 -4,150 Descending Montreal Center
Thu 02:21:26 AM 46.3000 -75.3667 191° South 460 529 23,200 -4,800 Descending Montreal Center
Thu 02:22:26 AM 46.1833 -75.3833 186° South 440 506 18,100 -4,650 Descending Montreal Center
Thu 02:23:26 AM 46.0667 -75.4167 191° South 410 472 13,900 -3,200 Descending Montreal Center
Thu 02:24:26 AM 45.9500 -75.4333 186° South 370 426 11,700 -1,200 Descending Montreal Center
Thu 02:25:26 AM 45.8833 -75.4667 199° South 300 345 11,500 -650 Descending Montreal Center
Thu 02:26:26 AM 45.8000 -75.4667 180° South 290 334 10,400 -1,400 Descending Montreal Center
Thu 02:27:26 AM 45.7167 -75.4833 188° South 290 334 8,700 -1,500 Descending Montreal Center
Thu 02:28:26 AM 45.6333 -75.4667 172° South 300 345 7,400 -1,250 Descending Montreal Center
Thu 02:29:26 AM 45.5500 -75.4333 164° South 280 322 6,200 -1,200 Descending Montreal Center
Thu 02:30:26 AM 45.4667 -75.4500 188° South 270 311 5,000 -1,200 Descending Montreal Center
Thu 02:31:26 AM 45.4000 -75.4500 180° South 240 276 3,800 -900 Descending Montreal Center
Thu 02:32:26 AM 45.3667 -75.5167 235° Southwest 190 219 3,200 -1,000 Descending Montreal Center
Thu 02:33:26 AM 45.3500 -75.5667 245° Southwest 120 138 1,800 -1,000 Descending Montreal Center
Thu 02:34:26 AM 45.3333 -75.5833 215° Southwest 100 115 1,200 -550 Descending Montreal Center
Thu 02:35:26 AM 45.3167 -75.6333 245° Southwest 110 127 700 -500 Descending Montreal Center

Login

Don't have an account? Register now (free) for customized features, flight alerts, and more!